createdAt,value
2023-06-29T00:01:58.925Z,14.00
2023-06-29T00:04:26.856Z,14.00
2023-06-29T00:06:57.690Z,14.00
2023-06-29T00:09:24.548Z,14.00
2023-06-29T00:11:51.419Z,13.90
2023-06-29T00:14:18.324Z,13.90
2023-06-29T00:16:45.300Z,13.90
2023-06-29T00:19:15.591Z,13.90
2023-06-29T00:21:42.535Z,13.80
2023-06-29T00:24:12.168Z,13.80
2023-06-29T00:26:39.576Z,13.80
2023-06-29T00:29:06.657Z,13.70
2023-06-29T00:31:33.580Z,13.80
2023-06-29T00:34:00.482Z,13.70
2023-06-29T00:36:27.349Z,13.80
2023-06-29T00:38:54.190Z,13.70
2023-06-29T00:41:21.032Z,13.70
2023-06-29T00:43:47.831Z,13.60
2023-06-29T00:46:21.101Z,13.60
2023-06-29T00:48:48.835Z,13.60
2023-06-29T00:51:17.108Z,13.60
2023-06-29T00:53:44.513Z,13.60
2023-06-29T00:56:11.569Z,13.60
2023-06-29T00:58:38.834Z,13.70
2023-06-29T01:01:05.783Z,13.70
2023-06-29T01:03:32.778Z,13.70
2023-06-29T01:06:05.468Z,13.70
2023-06-29T01:08:44.637Z,13.70
2023-06-29T01:11:13.693Z,13.60
2023-06-29T01:13:43.992Z,13.60
2023-06-29T01:16:12.788Z,13.60
2023-06-29T01:18:40.759Z,13.60
2023-06-29T01:21:08.573Z,13.50
2023-06-29T01:23:39.225Z,13.40
2023-06-29T01:26:06.702Z,13.40
2023-06-29T01:28:39.104Z,13.30
2023-06-29T01:31:06.583Z,13.30
2023-06-29T01:33:34.446Z,13.30
2023-06-29T01:36:08.370Z,13.30
2023-06-29T01:38:41.344Z,13.30
2023-06-29T01:41:08.908Z,13.20
2023-06-29T01:43:36.451Z,13.30
2023-06-29T01:46:05.328Z,13.20
2023-06-29T01:48:33.781Z,13.30
2023-06-29T01:51:00.915Z,13.20
2023-06-29T01:53:30.359Z,13.20
2023-06-29T01:55:58.588Z,13.20
2023-06-29T01:58:25.582Z,13.20
2023-06-29T02:00:52.415Z,13.20
2023-06-29T02:03:19.254Z,13.20
2023-06-29T02:05:46.274Z,13.20
2023-06-29T02:08:13.461Z,13.10
2023-06-29T02:10:40.296Z,13.10
2023-06-29T02:13:07.093Z,13.10
2023-06-29T02:15:33.933Z,13.10
2023-06-29T02:18:00.837Z,13.10
2023-06-29T02:20:27.637Z,13.10
2023-06-29T02:22:54.863Z,13.00
2023-06-29T02:25:21.828Z,13.00
2023-06-29T02:27:48.692Z,13.00
2023-06-29T02:30:15.633Z,13.00
2023-06-29T02:32:42.494Z,13.00
2023-06-29T02:35:09.794Z,12.90
2023-06-29T02:37:36.686Z,12.90
2023-06-29T02:40:03.916Z,12.90
2023-06-29T02:42:30.771Z,12.80
2023-06-29T02:44:57.614Z,12.80
2023-06-29T02:47:24.511Z,12.90
2023-06-29T02:49:51.391Z,12.90
2023-06-29T02:52:18.190Z,12.90
2023-06-29T02:54:44.979Z,12.90
2023-06-29T02:57:11.798Z,12.90
2023-06-29T02:59:39.308Z,12.90
2023-06-29T03:02:06.679Z,12.90
2023-06-29T03:04:33.477Z,12.80
2023-06-29T03:07:00.308Z,12.80
2023-06-29T03:09:27.203Z,12.80
2023-06-29T03:11:54.003Z,12.80
2023-06-29T03:14:22.867Z,12.80
2023-06-29T03:16:49.830Z,12.80
2023-06-29T03:19:16.688Z,12.80
2023-06-29T03:21:43.446Z,12.80
2023-06-29T03:24:10.320Z,12.70
2023-06-29T03:26:37.171Z,12.70
2023-06-29T03:29:03.972Z,12.60
2023-06-29T03:31:30.823Z,12.60
2023-06-29T03:33:59.888Z,12.60
2023-06-29T03:36:27.195Z,12.50
2023-06-29T03:38:54.021Z,12.50
2023-06-29T03:41:21.017Z,12.50
2023-06-29T03:43:47.837Z,12.50
2023-06-29T03:46:14.716Z,12.50
2023-06-29T03:48:41.510Z,12.50
2023-06-29T03:51:08.421Z,12.60
2023-06-29T03:53:35.225Z,12.60
2023-06-29T03:56:02.115Z,12.70
2023-06-29T03:58:28.924Z,12.70
2023-06-29T04:00:55.881Z,12.70
2023-06-29T04:03:22.751Z,12.70
2023-06-29T04:05:49.786Z,12.70
2023-06-29T04:08:16.586Z,12.80
2023-06-29T04:10:43.367Z,12.80
2023-06-29T04:13:10.259Z,12.80
2023-06-29T04:15:37.145Z,12.80
2023-06-29T04:18:04.135Z,12.80
2023-06-29T04:20:31.010Z,12.80
2023-06-29T04:22:57.853Z,12.80
2023-06-29T04:25:25.124Z,13.00
2023-06-29T04:27:52.016Z,12.90
2023-06-29T04:30:19.145Z,12.90
2023-06-29T04:32:50.457Z,12.90
2023-06-29T04:35:17.474Z,12.90
2023-06-29T04:37:44.277Z,12.90
2023-06-29T04:40:15.349Z,12.90
2023-06-29T04:42:46.285Z,12.90
2023-06-29T04:45:20.345Z,13.00
2023-06-29T04:47:50.762Z,13.00
2023-06-29T04:50:27.318Z,13.00
2023-06-29T04:52:57.328Z,13.00
2023-06-29T04:55:24.177Z,13.10
2023-06-29T04:57:51.270Z,13.20
2023-06-29T05:00:19.846Z,13.30
2023-06-29T05:02:46.868Z,13.40
2023-06-29T05:05:13.957Z,13.50
2023-06-29T05:07:42.597Z,13.60
2023-06-29T05:10:09.721Z,13.70
2023-06-29T05:12:36.530Z,13.80
2023-06-29T05:15:03.533Z,13.90
2023-06-29T05:17:31.074Z,14.00
2023-06-29T05:19:59.186Z,14.20
2023-06-29T05:22:25.967Z,14.30
2023-06-29T05:24:52.759Z,14.40
2023-06-29T05:27:19.555Z,14.70
2023-06-29T05:29:46.378Z,14.80
2023-06-29T05:32:13.555Z,15.00
2023-06-29T05:34:40.317Z,15.10
2023-06-29T05:37:07.194Z,15.30
2023-06-29T05:39:33.981Z,15.40
2023-06-29T05:42:00.866Z,15.50
2023-06-29T05:44:27.690Z,15.60
2023-06-29T05:46:54.494Z,15.70
2023-06-29T05:49:21.341Z,15.80
2023-06-29T05:51:48.106Z,15.90
2023-06-29T05:54:15.047Z,16.00
2023-06-29T05:56:41.871Z,16.10
2023-06-29T05:59:08.663Z,16.20
2023-06-29T06:01:36.326Z,16.20
2023-06-29T06:04:07.153Z,16.30
2023-06-29T06:06:34.123Z,16.40
2023-06-29T06:09:01.019Z,16.50
2023-06-29T06:11:27.860Z,16.50
2023-06-29T06:13:54.638Z,16.60
2023-06-29T06:16:22.057Z,16.70
2023-06-29T06:18:48.959Z,16.80
2023-06-29T06:21:15.763Z,16.80
2023-06-29T06:23:43.213Z,16.90
2023-06-29T06:26:09.933Z,17.00
2023-06-29T06:28:36.704Z,17.10
2023-06-29T06:31:03.475Z,17.20
2023-06-29T06:33:31.354Z,17.20
2023-06-29T06:36:00.424Z,17.40
2023-06-29T06:38:44.746Z,17.50
2023-06-29T06:41:14.406Z,17.60
2023-06-29T06:43:41.178Z,17.80
2023-06-29T06:46:07.920Z,17.90
2023-06-29T06:48:34.704Z,17.90
2023-06-29T06:51:01.502Z,18.10
2023-06-29T06:53:28.321Z,18.20
2023-06-29T06:55:55.576Z,18.30
2023-06-29T06:58:22.313Z,18.50
2023-06-29T07:00:49.159Z,18.60
2023-06-29T07:03:16.194Z,18.70
2023-06-29T07:05:43.324Z,18.90
2023-06-29T07:08:10.099Z,19.00
2023-06-29T07:10:36.969Z,19.10
2023-06-29T07:13:03.844Z,19.20
2023-06-29T07:15:30.699Z,19.40
2023-06-29T07:17:57.528Z,19.50
2023-06-29T07:25:24.209Z,19.80
2023-06-29T07:27:50.980Z,19.90
2023-06-29T07:30:17.837Z,20.00
2023-06-29T07:32:45.151Z,20.10
2023-06-29T07:35:13.054Z,20.40
2023-06-29T07:37:39.854Z,20.80
2023-06-29T07:40:07.620Z,21.00
2023-06-29T07:42:40.230Z,21.10
2023-06-29T07:45:08.167Z,21.20
2023-06-29T07:47:35.351Z,21.20
2023-06-29T07:50:02.380Z,21.30
2023-06-29T07:52:29.509Z,21.40
2023-06-29T07:54:56.304Z,21.70
2023-06-29T07:59:52.761Z,22.00
2023-06-29T08:02:19.587Z,22.30
2023-06-29T08:07:16.173Z,22.50
2023-06-29T08:09:43.016Z,22.60
2023-06-29T08:12:09.824Z,22.70
2023-06-29T08:14:38.776Z,22.90
2023-06-29T08:17:06.008Z,23.00
2023-06-29T08:19:33.505Z,23.10
2023-06-29T08:22:00.378Z,23.20
2023-06-29T08:24:27.128Z,23.10
2023-06-29T08:26:54.066Z,23.20
2023-06-29T08:29:21.158Z,23.20
2023-06-29T08:31:48.208Z,23.20
2023-06-29T08:34:15.215Z,23.30
2023-06-29T08:36:42.058Z,23.30
2023-06-29T08:39:09.829Z,23.50
2023-06-29T08:41:37.005Z,23.70
2023-06-29T08:44:05.543Z,23.80
2023-06-29T08:46:33.997Z,23.80
2023-06-29T08:49:01.757Z,23.70
2023-06-29T08:51:29.928Z,23.70
2023-06-29T08:53:57.614Z,23.80
2023-06-29T08:56:24.870Z,24.20
2023-06-29T08:58:52.960Z,24.40
2023-06-29T09:01:20.348Z,24.40
2023-06-29T09:03:48.880Z,24.40
2023-06-29T09:06:16.322Z,24.40
2023-06-29T09:08:43.305Z,24.20
2023-06-29T09:11:10.289Z,24.00
2023-06-29T09:13:37.786Z,24.00
2023-06-29T09:16:05.755Z,24.00
2023-06-29T09:18:33.505Z,23.90
2023-06-29T09:21:00.375Z,23.80
2023-06-29T09:23:29.828Z,24.00
2023-06-29T09:25:58.256Z,24.10
2023-06-29T09:28:26.601Z,24.20
2023-06-29T09:30:54.260Z,24.30
2023-06-29T09:33:22.500Z,24.30
2023-06-29T09:35:53.134Z,24.40
2023-06-29T09:38:21.009Z,24.50
2023-06-29T09:40:52.801Z,24.70
2023-06-29T09:43:30.954Z,24.80
2023-06-29T09:46:08.334Z,24.90
2023-06-29T09:51:26.011Z,24.80
2023-06-29T09:53:53.006Z,25.00
2023-06-29T09:56:21.259Z,25.10
2023-06-29T09:58:48.603Z,25.20
2023-06-29T10:01:17.015Z,25.10
2023-06-29T10:03:45.284Z,25.00
2023-06-29T10:06:16.810Z,25.10
2023-06-29T10:08:45.466Z,25.20
2023-06-29T10:11:12.651Z,25.40
2023-06-29T10:13:44.477Z,25.60
2023-06-29T10:16:13.515Z,25.70
2023-06-29T10:18:48.037Z,26.00
2023-06-29T10:21:15.306Z,26.00
2023-06-29T10:23:43.698Z,26.00
2023-06-29T10:26:12.167Z,25.90
2023-06-29T10:28:39.486Z,25.70
2023-06-29T10:31:06.442Z,25.70
2023-06-29T10:33:46.082Z,25.70
2023-06-29T10:36:14.961Z,25.50
2023-06-29T10:38:41.909Z,25.60
2023-06-29T10:41:25.777Z,25.70
2023-06-29T10:43:59.886Z,25.90
2023-06-29T10:46:45.054Z,26.00
2023-06-29T10:49:23.606Z,25.90
2023-06-29T10:51:52.505Z,25.80
2023-06-29T10:54:23.398Z,25.70
2023-06-29T10:57:08.216Z,25.60
2023-06-29T10:59:37.915Z,25.50
2023-06-29T11:02:05.198Z,25.60
2023-06-29T11:04:32.382Z,25.50
2023-06-29T11:07:08.084Z,25.50
2023-06-29T11:09:35.532Z,25.40
2023-06-29T11:12:02.794Z,25.30
2023-06-29T11:14:29.996Z,25.20
2023-06-29T11:16:58.029Z,25.10
2023-06-29T11:19:29.165Z,24.90
2023-06-29T11:21:56.315Z,24.80
2023-06-29T11:24:23.207Z,24.80
2023-06-29T11:26:50.120Z,24.80
2023-06-29T11:29:17.045Z,24.80
2023-06-29T11:31:43.916Z,24.90
2023-06-29T11:34:14.768Z,24.90
2023-06-29T11:36:41.585Z,24.80
2023-06-29T11:39:13.074Z,24.60
2023-06-29T11:41:41.878Z,24.40
2023-06-29T11:44:11.442Z,24.20
2023-06-29T11:46:46.664Z,24.10
2023-06-29T11:49:21.115Z,24.10
2023-06-29T11:51:50.855Z,24.10
2023-06-29T11:54:18.154Z,24.20
2023-06-29T11:56:45.050Z,24.20
2023-06-29T11:59:13.815Z,24.10
2023-06-29T12:01:40.969Z,24.10
2023-06-29T12:04:10.107Z,24.10
2023-06-29T12:06:37.755Z,24.00
2023-06-29T12:09:12.073Z,24.00
2023-06-29T12:11:40.559Z,24.00
2023-06-29T12:14:10.809Z,24.00
2023-06-29T12:19:14.365Z,24.10
2023-06-29T12:21:42.034Z,24.20
2023-06-29T12:24:09.264Z,24.20
2023-06-29T12:26:36.161Z,24.10
2023-06-29T12:29:02.970Z,24.00
2023-06-29T12:31:30.366Z,23.90
2023-06-29T12:33:58.314Z,23.80
2023-06-29T12:36:25.206Z,23.60
2023-06-29T12:38:52.456Z,23.60
2023-06-29T12:41:20.067Z,23.50
2023-06-29T12:43:48.447Z,23.40
2023-06-29T12:46:15.266Z,23.40
2023-06-29T12:48:42.159Z,23.40
2023-06-29T12:51:08.931Z,23.40
2023-06-29T12:53:35.777Z,23.40
2023-06-29T12:56:02.601Z,23.20
2023-06-29T12:58:29.593Z,22.90
2023-06-29T13:00:57.095Z,22.80
2023-06-29T13:03:24.100Z,22.80
2023-06-29T13:05:53.181Z,22.90
2023-06-29T13:08:20.064Z,23.00
2023-06-29T13:10:46.911Z,23.20
2023-06-29T13:13:13.768Z,23.30
2023-06-29T13:15:40.628Z,23.50
2023-06-29T13:18:07.461Z,23.80
2023-06-29T13:20:34.297Z,24.10
2023-06-29T13:23:01.619Z,24.30
2023-06-29T13:25:28.709Z,24.70
2023-06-29T13:27:55.620Z,25.40
2023-06-29T13:30:22.496Z,25.90
2023-06-29T13:32:49.615Z,26.50
2023-06-29T13:35:16.534Z,27.20
2023-06-29T13:37:43.321Z,28.10
2023-06-29T13:40:11.072Z,28.20
2023-06-29T13:42:37.895Z,27.80
2023-06-29T13:45:05.302Z,27.10
2023-06-29T13:47:32.150Z,26.70
2023-06-29T13:49:59.081Z,26.20
2023-06-29T13:52:25.939Z,25.80
2023-06-29T13:54:52.782Z,25.50
2023-06-29T13:57:19.565Z,25.20
2023-06-29T13:59:48.104Z,25.00
2023-06-29T14:02:15.002Z,24.80
2023-06-29T14:04:42.284Z,24.60
2023-06-29T14:07:09.165Z,24.50
2023-06-29T14:09:35.937Z,24.50
2023-06-29T14:12:02.828Z,24.40
2023-06-29T14:14:29.781Z,24.40
2023-06-29T14:16:56.605Z,24.40
2023-06-29T14:19:23.422Z,24.50
2023-06-29T14:21:50.253Z,24.60
2023-06-29T14:24:17.083Z,24.70
2023-06-29T14:26:43.865Z,24.80
2023-06-29T14:29:10.701Z,24.90
2023-06-29T14:31:37.520Z,25.00
2023-06-29T14:34:04.404Z,25.00
2023-06-29T14:36:31.316Z,25.10
2023-06-29T14:38:59.186Z,25.20
2023-06-29T14:41:26.018Z,25.30
2023-06-29T14:43:52.854Z,25.40
2023-06-29T14:46:19.682Z,25.30
2023-06-29T14:48:46.507Z,25.40
2023-06-29T14:51:13.340Z,25.40
2023-06-29T14:53:40.213Z,25.50
2023-06-29T14:56:09.636Z,25.60
2023-06-29T14:58:37.434Z,25.70
2023-06-29T15:01:04.666Z,25.80
2023-06-29T15:03:31.736Z,25.80
2023-06-29T15:05:58.693Z,26.00
2023-06-29T15:08:25.553Z,26.00
2023-06-29T15:10:52.467Z,26.00
2023-06-29T15:13:19.461Z,25.90
2023-06-29T15:15:46.476Z,25.80
2023-06-29T15:18:13.541Z,25.70
2023-06-29T15:20:40.558Z,25.70
2023-06-29T15:23:07.375Z,25.70
2023-06-29T15:25:34.236Z,25.90
2023-06-29T15:28:02.320Z,26.30
2023-06-29T15:30:29.158Z,26.50
2023-06-29T15:32:56.119Z,26.80
2023-06-29T15:35:23.907Z,26.80
2023-06-29T15:37:50.767Z,26.60
2023-06-29T15:40:18.003Z,26.60
2023-06-29T15:42:45.974Z,26.40
2023-06-29T15:45:13.228Z,26.30
2023-06-29T15:47:40.356Z,26.20
2023-06-29T15:50:08.223Z,26.00
2023-06-29T15:52:35.635Z,25.70
2023-06-29T15:55:02.478Z,25.70
2023-06-29T15:57:29.624Z,25.60
2023-06-29T15:59:56.397Z,25.60
2023-06-29T16:02:23.546Z,25.50
2023-06-29T16:04:50.498Z,25.60
2023-06-29T16:07:17.507Z,25.60
2023-06-29T16:09:44.302Z,25.50
2023-06-29T16:12:11.122Z,25.40
2023-06-29T16:14:37.959Z,25.40
2023-06-29T16:17:04.988Z,25.40
2023-06-29T16:19:31.834Z,25.40
2023-06-29T16:21:58.655Z,25.50
2023-06-29T16:24:25.456Z,25.60
2023-06-29T16:26:52.651Z,25.60
2023-06-29T16:29:19.555Z,25.70
2023-06-29T16:31:47.661Z,25.70
2023-06-29T16:34:15.047Z,25.70
2023-06-29T16:36:42.237Z,25.70
2023-06-29T16:39:09.122Z,25.70
2023-06-29T16:41:35.992Z,25.70
2023-06-29T16:44:02.838Z,25.70
2023-06-29T16:46:29.852Z,25.70
2023-06-29T16:49:01.141Z,25.70
2023-06-29T16:51:29.851Z,25.60
2023-06-29T16:53:58.222Z,25.40
2023-06-29T16:56:28.018Z,25.30
2023-06-29T16:58:55.312Z,25.30
2023-06-29T17:01:22.723Z,25.50
2023-06-29T17:03:49.661Z,25.90
2023-06-29T17:06:16.561Z,26.20
2023-06-29T17:08:44.891Z,26.30
2023-06-29T17:11:12.392Z,26.30
2023-06-29T17:13:39.179Z,26.30
2023-06-29T17:16:07.170Z,26.20
2023-06-29T17:18:35.644Z,26.00
2023-06-29T17:21:02.622Z,25.80
2023-06-29T17:23:29.437Z,25.70
2023-06-29T17:25:56.536Z,25.70
2023-06-29T17:28:23.384Z,25.50
2023-06-29T17:30:51.701Z,25.40
2023-06-29T17:33:18.965Z,25.20
2023-06-29T17:35:46.076Z,24.80
2023-06-29T17:38:13.118Z,24.50
2023-06-29T17:40:40.127Z,24.30
2023-06-29T17:43:06.998Z,24.10
2023-06-29T17:45:34.207Z,24.00
2023-06-29T17:48:01.161Z,23.90
2023-06-29T17:50:28.007Z,23.90
2023-06-29T17:52:54.775Z,23.90
2023-06-29T17:55:21.619Z,23.80
2023-06-29T17:57:48.464Z,23.70
2023-06-29T18:00:16.444Z,23.70
2023-06-29T18:02:43.597Z,23.50
2023-06-29T18:05:11.177Z,23.30
2023-06-29T18:07:38.905Z,23.20
2023-06-29T18:10:08.220Z,23.10
2023-06-29T18:12:37.145Z,23.00
2023-06-29T18:15:06.445Z,22.80
2023-06-29T18:17:34.326Z,22.70
2023-06-29T18:20:01.447Z,22.60
2023-06-29T18:22:28.292Z,22.40
2023-06-29T18:24:55.151Z,22.30
2023-06-29T18:27:23.221Z,22.10
2023-06-29T18:29:50.184Z,22.00
2023-06-29T18:32:18.773Z,21.90
2023-06-29T18:34:47.601Z,21.70
2023-06-29T18:37:15.024Z,21.50
2023-06-29T18:39:42.400Z,21.40
2023-06-29T18:42:09.259Z,21.20
2023-06-29T18:44:36.045Z,21.00
2023-06-29T18:47:14.848Z,20.90
2023-06-29T18:49:52.419Z,20.80
2023-06-29T18:52:20.634Z,20.80
2023-06-29T18:54:48.381Z,20.70
2023-06-29T18:57:15.495Z,20.60
2023-06-29T18:59:43.211Z,20.60
2023-06-29T19:02:10.664Z,20.50
2023-06-29T19:04:37.569Z,20.50
2023-06-29T19:07:04.689Z,20.50
2023-06-29T19:09:31.727Z,20.40
2023-06-29T19:12:02.251Z,20.40
2023-06-29T19:14:29.251Z,20.40
2023-06-29T19:16:59.329Z,20.40
2023-06-29T19:19:26.806Z,20.40
2023-06-29T19:21:54.046Z,20.30
2023-06-29T19:24:20.905Z,20.30
2023-06-29T19:26:48.249Z,20.30
2023-06-29T19:29:15.163Z,20.30
2023-06-29T19:31:44.741Z,20.20
2023-06-29T19:34:12.175Z,20.20
2023-06-29T19:36:39.669Z,20.20
2023-06-29T19:39:06.655Z,20.10
2023-06-29T19:41:33.651Z,20.10
2023-06-29T19:44:00.915Z,20.00
2023-06-29T19:46:27.856Z,20.00
2023-06-29T19:48:54.988Z,19.90
2023-06-29T19:51:22.020Z,19.80
2023-06-29T19:53:48.870Z,19.70
2023-06-29T19:56:16.143Z,19.70
2023-06-29T19:58:42.998Z,19.60
2023-06-29T20:01:09.756Z,19.50
2023-06-29T20:03:36.708Z,19.50
2023-06-29T20:06:04.125Z,19.30
2023-06-29T20:08:31.001Z,19.20
2023-06-29T20:10:57.851Z,19.20
2023-06-29T20:13:24.732Z,19.10
2023-06-29T20:15:51.732Z,19.10
2023-06-29T20:18:18.695Z,19.00
2023-06-29T20:20:45.533Z,18.90
2023-06-29T20:23:12.444Z,18.90
2023-06-29T20:25:39.383Z,18.90
2023-06-29T20:28:06.527Z,18.80
2023-06-29T20:30:33.462Z,18.80
2023-06-29T20:33:00.505Z,18.80
2023-06-29T20:35:27.781Z,18.70
2023-06-29T20:37:55.342Z,18.70
2023-06-29T20:40:22.089Z,18.60
2023-06-29T20:42:50.950Z,18.60
2023-06-29T20:45:17.865Z,18.60
2023-06-29T20:47:45.287Z,18.60
2023-06-29T20:50:12.225Z,18.50
2023-06-29T20:52:39.031Z,18.50
2023-06-29T20:55:06.572Z,18.50
2023-06-29T20:57:38.004Z,18.50
2023-06-29T21:00:07.998Z,18.50
2023-06-29T21:02:36.053Z,18.40
2023-06-29T21:05:03.484Z,18.40
2023-06-29T21:07:30.692Z,18.40
2023-06-29T21:09:57.599Z,18.40
2023-06-29T21:12:24.602Z,18.40
2023-06-29T21:14:51.527Z,18.40
2023-06-29T21:17:18.678Z,18.30
2023-06-29T21:19:45.744Z,18.40
2023-06-29T21:22:14.429Z,18.30
2023-06-29T21:24:43.122Z,18.30
2023-06-29T21:27:19.193Z,18.30
2023-06-29T21:29:47.896Z,18.30
2023-06-29T21:32:15.922Z,18.30
2023-06-29T21:34:43.201Z,18.20
2023-06-29T21:37:11.123Z,18.20
2023-06-29T21:39:38.023Z,18.20
2023-06-29T21:42:05.524Z,18.10
2023-06-29T21:44:32.504Z,18.10
2023-06-29T21:47:02.787Z,18.10
2023-06-29T21:49:30.039Z,18.00
2023-06-29T21:51:56.868Z,18.00
2023-06-29T21:54:23.674Z,17.90
2023-06-29T21:56:50.928Z,17.90
2023-06-29T21:59:18.355Z,17.80
2023-06-29T22:01:45.176Z,17.80
2023-06-29T22:04:12.181Z,17.70
2023-06-29T22:06:39.083Z,17.60
2023-06-29T22:09:05.843Z,17.60
2023-06-29T22:11:32.619Z,17.50
2023-06-29T22:13:59.531Z,17.50
2023-06-29T22:16:29.709Z,17.40
2023-06-29T22:18:56.927Z,17.40
2023-06-29T22:21:25.342Z,17.30
2023-06-29T22:23:54.313Z,17.30
2023-06-29T22:26:22.698Z,17.20
2023-06-29T22:28:50.137Z,17.10
2023-06-29T22:31:18.509Z,17.10
2023-06-29T22:33:46.660Z,17.00
2023-06-29T22:36:16.954Z,17.00
2023-06-29T22:38:43.933Z,17.00
2023-06-29T22:41:11.239Z,17.00
2023-06-29T22:43:38.768Z,17.00
2023-06-29T22:46:05.640Z,17.00
2023-06-29T22:48:32.584Z,16.90
2023-06-29T22:51:00.274Z,16.90
2023-06-29T22:53:27.486Z,16.90
2023-06-29T22:55:54.440Z,16.90
2023-06-29T22:58:25.998Z,16.80
2023-06-29T23:00:54.468Z,16.80
2023-06-29T23:03:23.022Z,16.80
2023-06-29T23:05:50.214Z,16.70
2023-06-29T23:08:17.960Z,16.70
2023-06-29T23:10:47.404Z,16.70
2023-06-29T23:13:17.011Z,16.70
2023-06-29T23:15:45.121Z,16.70
2023-06-29T23:18:12.794Z,16.60
2023-06-29T23:20:44.562Z,16.60
2023-06-29T23:23:13.773Z,16.60
2023-06-29T23:25:43.043Z,16.60
2023-06-29T23:28:10.181Z,16.50
2023-06-29T23:30:37.058Z,16.50
2023-06-29T23:33:04.108Z,16.50
2023-06-29T23:35:30.981Z,16.50
2023-06-29T23:37:57.809Z,16.50
2023-06-29T23:40:26.933Z,16.40
2023-06-29T23:42:54.634Z,16.40
2023-06-29T23:45:22.533Z,16.40
2023-06-29T23:47:50.514Z,16.40
2023-06-29T23:50:19.306Z,16.40
2023-06-29T23:52:46.364Z,16.30
2023-06-29T23:55:13.514Z,16.30
2023-06-29T23:57:41.296Z,16.30
